sensor_id;sensor_type;location;lat;lon;timestamp;pressure;altitude;pressure_sealevel;temperature;humidity
67109;BME280;54027;50.786;7.058;2023-08-12T00:01:22;101322.03;;;21.49;100.00
67109;BME280;54027;50.786;7.058;2023-08-12T00:03:50;101313.28;;;21.48;100.00
67109;BME280;54027;50.786;7.058;2023-08-12T00:06:15;101310.00;;;21.43;100.00
67109;BME280;54027;50.786;7.058;2023-08-12T00:08:41;101324.84;;;21.44;100.00
67109;BME280;54027;50.786;7.058;2023-08-12T00:11:06;101322.34;;;21.41;100.00
67109;BME280;54027;50.786;7.058;2023-08-12T00:13:31;101323.22;;;21.42;100.00
67109;BME280;54027;50.786;7.058;2023-08-12T00:15:57;101318.88;;;21.41;100.00
67109;BME280;54027;50.786;7.058;2023-08-12T00:18:22;101321.56;;;21.39;100.00
67109;BME280;54027;50.786;7.058;2023-08-12T00:20:48;101323.47;;;21.36;100.00
67109;BME280;54027;50.786;7.058;2023-08-12T00:23:13;101333.94;;;21.37;100.00
67109;BME280;54027;50.786;7.058;2023-08-12T00:25:38;101340.25;;;21.33;100.00
67109;BME280;54027;50.786;7.058;2023-08-12T00:28:04;101327.22;;;21.30;100.00
67109;BME280;54027;50.786;7.058;2023-08-12T00:30:29;101325.59;;;21.27;100.00
67109;BME280;54027;50.786;7.058;2023-08-12T00:32:55;101330.00;;;21.27;100.00
67109;BME280;54027;50.786;7.058;2023-08-12T00:35:20;101324.88;;;21.24;100.00
67109;BME280;54027;50.786;7.058;2023-08-12T00:37:46;101328.34;;;21.24;100.00
67109;BME280;54027;50.786;7.058;2023-08-12T00:40:12;101319.41;;;21.28;100.00
67109;BME280;54027;50.786;7.058;2023-08-12T00:42:38;101305.56;;;21.25;100.00
67109;BME280;54027;50.786;7.058;2023-08-12T00:45:07;101304.97;;;21.18;100.00
67109;BME280;54027;50.786;7.058;2023-08-12T00:47:34;101305.16;;;21.14;100.00
67109;BME280;54027;50.786;7.058;2023-08-12T00:49:59;101298.25;;;21.11;100.00
67109;BME280;54027;50.786;7.058;2023-08-12T00:52:25;101300.81;;;21.13;100.00
67109;BME280;54027;50.786;7.058;2023-08-12T00:54:52;101292.09;;;21.12;100.00
67109;BME280;54027;50.786;7.058;2023-08-12T00:57:17;101300.03;;;21.11;100.00
67109;BME280;54027;50.786;7.058;2023-08-12T00:59:44;101305.22;;;21.12;100.00
67109;BME280;54027;50.786;7.058;2023-08-12T01:02:11;101298.97;;;21.15;100.00
67109;BME280;54027;50.786;7.058;2023-08-12T01:04:36;101285.84;;;21.15;100.00
67109;BME280;54027;50.786;7.058;2023-08-12T01:07:02;101284.06;;;21.15;100.00
67109;BME280;54027;50.786;7.058;2023-08-12T01:09:28;101284.13;;;21.14;100.00
67109;BME280;54027;50.786;7.058;2023-08-12T01:17:15;101268.28;;;21.15;100.00
67109;BME280;54027;50.786;7.058;2023-08-12T01:19:42;101269.34;;;21.11;100.00
67109;BME280;54027;50.786;7.058;2023-08-12T01:22:10;101270.41;;;21.07;100.00
67109;BME280;54027;50.786;7.058;2023-08-12T01:24:37;101266.84;;;21.08;100.00
67109;BME280;54027;50.786;7.058;2023-08-12T01:27:04;101260.16;;;21.01;100.00
67109;BME280;54027;50.786;7.058;2023-08-12T01:29:30;101256.72;;;20.99;100.00
67109;BME280;54027;50.786;7.058;2023-08-12T01:32:11;101262.84;;;21.00;100.00
67109;BME280;54027;50.786;7.058;2023-08-12T01:34:43;101271.59;;;21.00;100.00
67109;BME280;54027;50.786;7.058;2023-08-12T01:37:11;101265.47;;;21.00;100.00
67109;BME280;54027;50.786;7.058;2023-08-12T01:39:39;101255.81;;;21.00;100.00
67109;BME280;54027;50.786;7.058;2023-08-12T01:42:06;101255.09;;;20.97;100.00
67109;BME280;54027;50.786;7.058;2023-08-12T01:44:32;101252.59;;;20.94;100.00
67109;BME280;54027;50.786;7.058;2023-08-12T01:46:59;101243.97;;;20.90;100.00
67109;BME280;54027;50.786;7.058;2023-08-12T01:49:24;101241.31;;;20.92;100.00
67109;BME280;54027;50.786;7.058;2023-08-12T01:51:50;101241.22;;;20.93;100.00
67109;BME280;54027;50.786;7.058;2023-08-12T01:54:15;101233.47;;;20.90;100.00
67109;BME280;54027;50.786;7.058;2023-08-12T01:56:40;101240.44;;;20.91;100.00
67109;BME280;54027;50.786;7.058;2023-08-12T01:59:06;101226.31;;;20.94;100.00
67109;BME280;54027;50.786;7.058;2023-08-12T02:01:31;101228.16;;;20.92;100.00
67109;BME280;54027;50.786;7.058;2023-08-12T02:03:56;101231.84;;;20.88;100.00
67109;BME280;54027;50.786;7.058;2023-08-12T02:06:22;101231.06;;;20.86;100.00
67109;BME280;54027;50.786;7.058;2023-08-12T02:08:47;101224.22;;;20.82;100.00
67109;BME280;54027;50.786;7.058;2023-08-12T02:11:13;101231.22;;;20.81;100.00
67109;BME280;54027;50.786;7.058;2023-08-12T02:13:38;101228.59;;;20.81;100.00
67109;BME280;54027;50.786;7.058;2023-08-12T02:16:03;101229.59;;;20.79;100.00
67109;BME280;54027;50.786;7.058;2023-08-12T02:18:29;101227.91;;;20.78;100.00
67109;BME280;54027;50.786;7.058;2023-08-12T02:20:54;101223.56;;;20.77;100.00
67109;BME280;54027;50.786;7.058;2023-08-12T02:23:19;101225.41;;;20.75;100.00
67109;BME280;54027;50.786;7.058;2023-08-12T02:25:45;101227.19;;;20.74;100.00
67109;BME280;54027;50.786;7.058;2023-08-12T02:28:10;101221.97;;;20.72;100.00
67109;BME280;54027;50.786;7.058;2023-08-12T02:30:35;101222.16;;;20.68;100.00
67109;BME280;54027;50.786;7.058;2023-08-12T02:33:01;101230.94;;;20.67;100.00
67109;BME280;54027;50.786;7.058;2023-08-12T02:35:26;101228.31;;;20.67;100.00
67109;BME280;54027;50.786;7.058;2023-08-12T02:37:52;101232.63;;;20.69;100.00
67109;BME280;54027;50.786;7.058;2023-08-12T02:40:17;101227.31;;;20.71;100.00
67109;BME280;54027;50.786;7.058;2023-08-12T02:42:42;101232.56;;;20.71;100.00
67109;BME280;54027;50.786;7.058;2023-08-12T02:45:08;101218.50;;;20.72;100.00
67109;BME280;54027;50.786;7.058;2023-08-12T02:47:33;101213.31;;;20.70;100.00
67109;BME280;54027;50.786;7.058;2023-08-12T02:49:59;101211.66;;;20.68;100.00
67109;BME280;54027;50.786;7.058;2023-08-12T02:52:24;101210.78;;;20.67;100.00
67109;BME280;54027;50.786;7.058;2023-08-12T02:54:49;101216.84;;;20.69;100.00
67109;BME280;54027;50.786;7.058;2023-08-12T02:57:15;101211.56;;;20.71;100.00
67109;BME280;54027;50.786;7.058;2023-08-12T02:59:40;101214.19;;;20.71;100.00
67109;BME280;54027;50.786;7.058;2023-08-12T03:02:05;101213.31;;;20.70;100.00
67109;BME280;54027;50.786;7.058;2023-08-12T03:04:31;101208.97;;;20.69;100.00
67109;BME280;54027;50.786;7.058;2023-08-12T03:06:56;101204.75;;;20.65;100.00
67109;BME280;54027;50.786;7.058;2023-08-12T03:09:22;101204.69;;;20.67;100.00
67109;BME280;54027;50.786;7.058;2023-08-12T03:11:47;101195.94;;;20.66;100.00
67109;BME280;54027;50.786;7.058;2023-08-12T03:14:12;101193.44;;;20.63;100.00
67109;BME280;54027;50.786;7.058;2023-08-12T03:16:38;101196.94;;;20.64;100.00
67109;BME280;54027;50.786;7.058;2023-08-12T03:19:03;101197.91;;;20.61;100.00
67109;BME280;54027;50.786;7.058;2023-08-12T03:21:29;101198.03;;;20.58;100.00
67109;BME280;54027;50.786;7.058;2023-08-12T03:23:54;101191.16;;;20.56;100.00
67109;BME280;54027;50.786;7.058;2023-08-12T03:26:19;101188.53;;;20.56;100.00
67109;BME280;54027;50.786;7.058;2023-08-12T03:28:45;101181.63;;;20.53;100.00
67109;BME280;54027;50.786;7.058;2023-08-12T03:31:10;101180.78;;;20.53;100.00
67109;BME280;54027;50.786;7.058;2023-08-12T03:33:36;101175.44;;;20.54;100.00
67109;BME280;54027;50.786;7.058;2023-08-12T03:36:01;101164.25;;;20.51;100.00
67109;BME280;54027;50.786;7.058;2023-08-12T03:38:26;101170.41;;;20.50;100.00
67109;BME280;54027;50.786;7.058;2023-08-12T03:40:52;101166.13;;;20.47;100.00
67109;BME280;54027;50.786;7.058;2023-08-12T03:43:17;101169.53;;;20.49;100.00
67109;BME280;54027;50.786;7.058;2023-08-12T03:45:43;101162.72;;;20.45;100.00
67109;BME280;54027;50.786;7.058;2023-08-12T03:48:09;101164.50;;;20.45;100.00
67109;BME280;54027;50.786;7.058;2023-08-12T03:50:38;101163.78;;;20.41;100.00
67109;BME280;54027;50.786;7.058;2023-08-12T03:53:04;101158.56;;;20.40;100.00
67109;BME280;54027;50.786;7.058;2023-08-12T03:55:33;101150.91;;;20.35;100.00
67109;BME280;54027;50.786;7.058;2023-08-12T03:57:59;101138.91;;;20.30;100.00
67109;BME280;54027;50.786;7.058;2023-08-12T04:00:25;101137.31;;;20.26;100.00
67109;BME280;54027;50.786;7.058;2023-08-12T04:02:50;101134.03;;;20.21;100.00
67109;BME280;54027;50.786;7.058;2023-08-12T04:05:15;101128.06;;;20.17;100.00
67109;BME280;54027;50.786;7.058;2023-08-12T04:07:41;101129.91;;;20.15;100.00
67109;BME280;54027;50.786;7.058;2023-08-12T04:10:07;101117.75;;;20.12;100.00
67109;BME280;54027;50.786;7.058;2023-08-12T04:12:32;101118.72;;;20.10;100.00
67109;BME280;54027;50.786;7.058;2023-08-12T04:14:58;101119.78;;;20.06;100.00
67109;BME280;54027;50.786;7.058;2023-08-12T04:17:23;101113.72;;;20.04;100.00
67109;BME280;54027;50.786;7.058;2023-08-12T04:19:48;101110.41;;;20.00;100.00
67109;BME280;54027;50.786;7.058;2023-08-12T04:22:14;101113.97;;;19.98;100.00
67109;BME280;54027;50.786;7.058;2023-08-12T04:24:40;101115.81;;;19.96;100.00
67109;BME280;54027;50.786;7.058;2023-08-12T04:27:05;101113.31;;;19.93;100.00
67109;BME280;54027;50.786;7.058;2023-08-12T04:29:30;101110.69;;;19.93;100.00
67109;BME280;54027;50.786;7.058;2023-08-12T04:31:56;101112.47;;;19.92;100.00
67109;BME280;54027;50.786;7.058;2023-08-12T04:34:21;101115.09;;;19.92;100.00
67109;BME280;54027;50.786;7.058;2023-08-12T04:36:46;101119.56;;;19.90;100.00
67109;BME280;54027;50.786;7.058;2023-08-12T04:39:12;101114.38;;;19.89;100.00
67109;BME280;54027;50.786;7.058;2023-08-12T04:41:37;101114.44;;;19.87;100.00
67109;BME280;54027;50.786;7.058;2023-08-12T04:44:04;101117.84;;;19.89;100.00
67109;BME280;54027;50.786;7.058;2023-08-12T04:46:30;101115.22;;;19.89;100.00
67109;BME280;54027;50.786;7.058;2023-08-12T04:48:55;101108.97;;;19.92;100.00
67109;BME280;54027;50.786;7.058;2023-08-12T04:51:20;101103.69;;;19.93;100.00
67109;BME280;54027;50.786;7.058;2023-08-12T04:53:46;101099.22;;;19.95;100.00
67109;BME280;54027;50.786;7.058;2023-08-12T04:56:11;101103.56;;;19.96;100.00
67109;BME280;54027;50.786;7.058;2023-08-12T04:58:37;101099.94;;;19.99;100.00
67109;BME280;54027;50.786;7.058;2023-08-12T05:01:02;101092.03;;;20.00;100.00
67109;BME280;54027;50.786;7.058;2023-08-12T05:03:28;101091.66;;;20.09;100.00
67109;BME280;54027;50.786;7.058;2023-08-12T05:05:53;101093.81;;;20.20;100.00
67109;BME280;54027;50.786;7.058;2023-08-12T05:08:19;101089.00;;;20.30;100.00
67109;BME280;54027;50.786;7.058;2023-08-12T05:10:49;101081.38;;;20.44;100.00
67109;BME280;54027;50.786;7.058;2023-08-12T05:13:15;101084.09;;;20.61;100.00
67109;BME280;54027;50.786;7.058;2023-08-12T05:15:44;101088.94;;;20.72;100.00
67109;BME280;54027;50.786;7.058;2023-08-12T05:18:09;101100.66;;;20.83;100.00
67109;BME280;54027;50.786;7.058;2023-08-12T05:20:35;101095.28;;;20.86;100.00
67109;BME280;54027;50.786;7.058;2023-08-12T05:23:00;101104.06;;;20.85;100.00
67109;BME280;54027;50.786;7.058;2023-08-12T05:25:25;101112.38;;;20.95;100.00
67109;BME280;54027;50.786;7.058;2023-08-12T05:27:51;101111.25;;;21.00;100.00
67109;BME280;54027;50.786;7.058;2023-08-12T05:30:16;101115.38;;;21.06;100.00
67109;BME280;54027;50.786;7.058;2023-08-12T05:32:41;101112.75;;;21.06;100.00
67109;BME280;54027;50.786;7.058;2023-08-12T05:35:07;101117.94;;;21.07;100.00
67109;BME280;54027;50.786;7.058;2023-08-12T05:37:32;101121.50;;;21.06;100.00
67109;BME280;54027;50.786;7.058;2023-08-12T05:39:58;101129.38;;;21.06;100.00
67109;BME280;54027;50.786;7.058;2023-08-12T05:42:23;101127.50;;;21.08;100.00
67109;BME280;54027;50.786;7.058;2023-08-12T05:44:49;101133.50;;;21.12;100.00
67109;BME280;54027;50.786;7.058;2023-08-12T05:47:14;101128.94;;;21.15;100.00
67109;BME280;54027;50.786;7.058;2023-08-12T05:49:39;101135.94;;;21.16;100.00
67109;BME280;54027;50.786;7.058;2023-08-12T05:52:05;101130.81;;;21.13;100.00
67109;BME280;54027;50.786;7.058;2023-08-12T05:54:30;101140.53;;;21.11;100.00
67109;BME280;54027;50.786;7.058;2023-08-12T05:56:55;101137.16;;;21.08;100.00
67109;BME280;54027;50.786;7.058;2023-08-12T05:59:21;101145.28;;;21.03;100.00
67109;BME280;54027;50.786;7.058;2023-08-12T06:01:46;101143.72;;;20.99;100.00
67109;BME280;54027;50.786;7.058;2023-08-12T06:04:12;101158.75;;;20.96;100.00
67109;BME280;54027;50.786;7.058;2023-08-12T06:06:37;101180.78;;;20.93;100.00
67109;BME280;54027;50.786;7.058;2023-08-12T06:09:03;101173.97;;;20.89;100.00
67109;BME280;54027;50.786;7.058;2023-08-12T06:11:28;101167.75;;;20.72;100.00
67109;BME280;54027;50.786;7.058;2023-08-12T06:13:54;101151.25;;;20.48;100.00
67109;BME280;54027;50.786;7.058;2023-08-12T06:16:19;101113.94;;;20.40;100.00
67109;BME280;54027;50.786;7.058;2023-08-12T06:18:44;101121.25;;;20.33;100.00
67109;BME280;54027;50.786;7.058;2023-08-12T06:21:10;101118.81;;;20.29;100.00
67109;BME280;54027;50.786;7.058;2023-08-12T06:23:35;101124.25;;;20.24;100.00
67109;BME280;54027;50.786;7.058;2023-08-12T06:26:00;101142.69;;;20.23;100.00
67109;BME280;54027;50.786;7.058;2023-08-12T06:28:26;101133.19;;;20.20;100.00
67109;BME280;54027;50.786;7.058;2023-08-12T06:30:51;101129.09;;;20.13;100.00
67109;BME280;54027;50.786;7.058;2023-08-12T06:33:16;101114.31;;;20.10;100.00
67109;BME280;54027;50.786;7.058;2023-08-12T06:35:42;101106.41;;;20.12;100.00
67109;BME280;54027;50.786;7.058;2023-08-12T06:38:07;101110.78;;;20.11;100.00
67109;BME280;54027;50.786;7.058;2023-08-12T06:40:35;101108.91;;;20.15;100.00
67109;BME280;54027;50.786;7.058;2023-08-12T06:43:00;101097.47;;;20.16;100.00
67109;BME280;54027;50.786;7.058;2023-08-12T06:45:26;101089.41;;;20.21;100.00
67109;BME280;54027;50.786;7.058;2023-08-12T06:47:51;101080.47;;;20.25;100.00
67109;BME280;54027;50.786;7.058;2023-08-12T06:50:17;101081.13;;;20.30;100.00
67109;BME280;54027;50.786;7.058;2023-08-12T06:52:42;101081.59;;;20.39;100.00
67109;BME280;54027;50.786;7.058;2023-08-12T06:55:08;101078.63;;;20.47;100.00
67109;BME280;54027;50.786;7.058;2023-08-12T06:57:33;101082.56;;;20.57;100.00
67109;BME280;54027;50.786;7.058;2023-08-12T06:59:58;101088.22;;;20.66;100.00
67109;BME280;54027;50.786;7.058;2023-08-12T07:02:24;101079.06;;;20.77;100.00
67109;BME280;54027;50.786;7.058;2023-08-12T07:04:49;101082.84;;;20.90;100.00
67109;BME280;54027;50.786;7.058;2023-08-12T07:07:14;101073.97;;;20.92;100.00
67109;BME280;54027;50.786;7.058;2023-08-12T07:09:40;101076.22;;;21.00;100.00
67109;BME280;54027;50.786;7.058;2023-08-12T07:12:05;101068.53;;;21.14;100.00
67109;BME280;54027;50.786;7.058;2023-08-12T07:14:31;101067.41;;;21.19;100.00
67109;BME280;54027;50.786;7.058;2023-08-12T07:16:56;101071.31;;;21.30;100.00
67109;BME280;54027;50.786;7.058;2023-08-12T07:19:22;101066.75;;;21.33;100.00
67109;BME280;54027;50.786;7.058;2023-08-12T07:21:47;101064.69;;;21.40;100.00
67109;BME280;54027;50.786;7.058;2023-08-12T07:24:13;101067.56;;;21.52;100.00
67109;BME280;54027;50.786;7.058;2023-08-12T07:26:38;101082.09;;;21.61;100.00
67109;BME280;54027;50.786;7.058;2023-08-12T07:29:03;101080.84;;;21.49;100.00
67109;BME280;54027;50.786;7.058;2023-08-12T07:31:29;101074.84;;;21.47;100.00
67109;BME280;54027;50.786;7.058;2023-08-12T07:33:54;101078.38;;;21.46;100.00
67109;BME280;54027;50.786;7.058;2023-08-12T07:36:19;101077.91;;;21.57;100.00
67109;BME280;54027;50.786;7.058;2023-08-12T07:38:45;101083.94;;;21.59;100.00
67109;BME280;54027;50.786;7.058;2023-08-12T07:41:10;101079.94;;;21.50;100.00
67109;BME280;54027;50.786;7.058;2023-08-12T07:43:36;101077.16;;;21.53;100.00
67109;BME280;54027;50.786;7.058;2023-08-12T07:46:01;101086.34;;;21.63;100.00
67109;BME280;54027;50.786;7.058;2023-08-12T07:48:26;101080.84;;;21.68;100.00
67109;BME280;54027;50.786;7.058;2023-08-12T07:50:56;101084.66;;;21.79;100.00
67109;BME280;54027;50.786;7.058;2023-08-12T07:53:22;101080.81;;;21.87;100.00
67109;BME280;54027;50.786;7.058;2023-08-12T07:55:47;101085.38;;;22.17;100.00
67109;BME280;54027;50.786;7.058;2023-08-12T07:58:13;101080.66;;;22.41;100.00
67109;BME280;54027;50.786;7.058;2023-08-12T08:00:38;101077.38;;;22.36;99.73
67109;BME280;54027;50.786;7.058;2023-08-12T08:03:04;101075.69;;;22.52;99.34
67109;BME280;54027;50.786;7.058;2023-08-12T08:05:29;101073.13;;;22.51;98.49
67109;BME280;54027;50.786;7.058;2023-08-12T08:07:55;101069.56;;;22.52;97.65
67109;BME280;54027;50.786;7.058;2023-08-12T08:10:20;101077.13;;;22.58;98.11
67109;BME280;54027;50.786;7.058;2023-08-12T08:12:46;101064.16;;;22.70;96.89
67109;BME280;54027;50.786;7.058;2023-08-12T08:15:11;101073.09;;;22.83;97.18
67109;BME280;54027;50.786;7.058;2023-08-12T08:17:36;101067.75;;;23.01;96.76
67109;BME280;54027;50.786;7.058;2023-08-12T08:20:02;101072.69;;;23.07;95.04
67109;BME280;54027;50.786;7.058;2023-08-12T08:22:28;101058.50;;;23.09;94.40
67109;BME280;54027;50.786;7.058;2023-08-12T08:24:53;101059.16;;;23.13;93.67
67109;BME280;54027;50.786;7.058;2023-08-12T08:27:19;101053.56;;;23.03;94.52
67109;BME280;54027;50.786;7.058;2023-08-12T08:29:44;101061.81;;;22.97;93.87
67109;BME280;54027;50.786;7.058;2023-08-12T08:32:10;101051.88;;;23.02;94.01
67109;BME280;54027;50.786;7.058;2023-08-12T08:34:35;101051.59;;;23.07;94.71
67109;BME280;54027;50.786;7.058;2023-08-12T08:37:00;101051.19;;;22.99;93.11
67109;BME280;54027;50.786;7.058;2023-08-12T08:39:26;101059.34;;;23.10;93.53
67109;BME280;54027;50.786;7.058;2023-08-12T08:41:53;101066.75;;;23.03;92.28
67109;BME280;54027;50.786;7.058;2023-08-12T08:44:21;101063.63;;;23.12;94.36
67109;BME280;54027;50.786;7.058;2023-08-12T08:46:49;101071.00;;;23.06;92.15
67109;BME280;54027;50.786;7.058;2023-08-12T08:49:15;101075.47;;;23.21;93.37
67109;BME280;54027;50.786;7.058;2023-08-12T08:51:42;101079.28;;;23.31;93.82
67109;BME280;54027;50.786;7.058;2023-08-12T08:54:08;101086.34;;;23.30;92.45
67109;BME280;54027;50.786;7.058;2023-08-12T08:56:34;101080.53;;;23.39;93.00
67109;BME280;54027;50.786;7.058;2023-08-12T08:59:00;101081.75;;;23.50;92.50
67109;BME280;54027;50.786;7.058;2023-08-12T09:01:26;101081.84;;;23.48;88.08
67109;BME280;54027;50.786;7.058;2023-08-12T09:03:52;101089.28;;;23.71;88.96
67109;BME280;54027;50.786;7.058;2023-08-12T09:06:20;101100.25;;;23.79;88.72
67109;BME280;54027;50.786;7.058;2023-08-12T09:08:47;101096.13;;;24.05;89.26
67109;BME280;54027;50.786;7.058;2023-08-12T09:11:13;101091.97;;;24.01;87.25
67109;BME280;54027;50.786;7.058;2023-08-12T09:13:41;101084.03;;;23.71;84.98
67109;BME280;54027;50.786;7.058;2023-08-12T09:16:06;101086.66;;;23.71;88.02
67109;BME280;54027;50.786;7.058;2023-08-12T09:18:31;101091.09;;;23.55;88.33
67109;BME280;54027;50.786;7.058;2023-08-12T09:20:57;101083.88;;;23.59;89.85
67109;BME280;54027;50.786;7.058;2023-08-12T09:23:23;101098.25;;;23.53;90.00
67109;BME280;54027;50.786;7.058;2023-08-12T09:25:48;101103.53;;;23.53;89.90
67109;BME280;54027;50.786;7.058;2023-08-12T09:28:14;101097.81;;;23.61;91.65
67109;BME280;54027;50.786;7.058;2023-08-12T09:30:40;101092.69;;;23.73;88.96
67109;BME280;54027;50.786;7.058;2023-08-12T09:33:07;101095.31;;;23.89;86.65
67109;BME280;54027;50.786;7.058;2023-08-12T09:35:34;101090.38;;;23.98;87.34
67109;BME280;54027;50.786;7.058;2023-08-12T09:38:01;101090.59;;;24.10;87.70
67109;BME280;54027;50.786;7.058;2023-08-12T09:40:27;101081.31;;;24.03;85.51
67109;BME280;54027;50.786;7.058;2023-08-12T09:42:53;101082.47;;;24.13;86.87
67109;BME280;54027;50.786;7.058;2023-08-12T09:45:18;101081.44;;;24.15;87.21
67109;BME280;54027;50.786;7.058;2023-08-12T09:47:45;101066.44;;;24.16;85.05
67109;BME280;54027;50.786;7.058;2023-08-12T09:50:11;101064.38;;;24.21;85.59
67109;BME280;54027;50.786;7.058;2023-08-12T09:52:39;101066.47;;;24.44;84.60
67109;BME280;54027;50.786;7.058;2023-08-12T09:55:05;101068.84;;;24.63;84.71
67109;BME280;54027;50.786;7.058;2023-08-12T09:57:33;101074.50;;;24.85;83.79
67109;BME280;54027;50.786;7.058;2023-08-12T10:00:02;101053.41;;;25.12;79.85
67109;BME280;54027;50.786;7.058;2023-08-12T10:02:29;101073.97;;;25.21;81.04
67109;BME280;54027;50.786;7.058;2023-08-12T10:04:56;101080.53;;;25.15;81.81
67109;BME280;54027;50.786;7.058;2023-08-12T10:07:23;101084.72;;;25.05;82.75
67109;BME280;54027;50.786;7.058;2023-08-12T10:09:48;101096.09;;;24.79;83.62
67109;BME280;54027;50.786;7.058;2023-08-12T10:12:15;101079.91;;;24.55;82.57
67109;BME280;54027;50.786;7.058;2023-08-12T10:14:40;101081.47;;;24.43;82.68
67109;BME280;54027;50.786;7.058;2023-08-12T10:17:07;101075.53;;;24.54;82.69
67109;BME280;54027;50.786;7.058;2023-08-12T10:19:35;101072.28;;;24.79;82.11
67109;BME280;54027;50.786;7.058;2023-08-12T10:22:02;101066.97;;;24.93;80.51
67109;BME280;54027;50.786;7.058;2023-08-12T10:24:29;101078.00;;;25.14;80.83
67109;BME280;54027;50.786;7.058;2023-08-12T10:26:54;101048.56;;;25.18;78.55
67109;BME280;54027;50.786;7.058;2023-08-12T10:29:20;101068.56;;;25.36;80.95
67109;BME280;54027;50.786;7.058;2023-08-12T10:31:47;101052.97;;;25.46;79.50
67109;BME280;54027;50.786;7.058;2023-08-12T10:34:23;101062.03;;;25.56;80.49
67109;BME280;54027;50.786;7.058;2023-08-12T10:36:56;101067.66;;;25.64;79.50
67109;BME280;54027;50.786;7.058;2023-08-12T10:39:25;101059.06;;;25.60;78.56
67109;BME280;54027;50.786;7.058;2023-08-12T10:41:52;101053.00;;;25.85;78.90
67109;BME280;54027;50.786;7.058;2023-08-12T10:44:20;101029.25;;;25.96;76.39
67109;BME280;54027;50.786;7.058;2023-08-12T10:46:50;101039.28;;;26.18;77.08
67109;BME280;54027;50.786;7.058;2023-08-12T10:49:19;101029.63;;;26.17;75.07
67109;BME280;54027;50.786;7.058;2023-08-12T10:51:53;101030.56;;;26.16;75.11
67109;BME280;54027;50.786;7.058;2023-08-12T10:54:26;101043.94;;;26.14;76.04
67109;BME280;54027;50.786;7.058;2023-08-12T10:57:07;101055.34;;;26.02;76.48
67109;BME280;54027;50.786;7.058;2023-08-12T11:04:42;101029.19;;;25.32;76.80
67109;BME280;54027;50.786;7.058;2023-08-12T11:07:37;101035.47;;;25.17;78.41
67109;BME280;54027;50.786;7.058;2023-08-12T11:10:15;101037.09;;;25.05;79.78
67109;BME280;54027;50.786;7.058;2023-08-12T11:13:03;101036.56;;;24.86;80.26
67109;BME280;54027;50.786;7.058;2023-08-12T11:16:05;101033.06;;;24.57;82.21
67109;BME280;54027;50.786;7.058;2023-08-12T11:18:31;101028.06;;;24.38;83.69
67109;BME280;54027;50.786;7.058;2023-08-12T11:20:57;101029.84;;;24.24;84.44
67109;BME280;54027;50.786;7.058;2023-08-12T11:23:22;101033.03;;;24.15;85.47
67109;BME280;54027;50.786;7.058;2023-08-12T11:25:48;101022.41;;;24.16;84.45
67109;BME280;54027;50.786;7.058;2023-08-12T11:28:17;101022.59;;;24.27;84.34
67109;BME280;54027;50.786;7.058;2023-08-12T11:30:44;101021.66;;;24.28;83.84
67109;BME280;54027;50.786;7.058;2023-08-12T11:33:10;101020.50;;;24.32;83.88
67109;BME280;54027;50.786;7.058;2023-08-12T11:35:37;101016.94;;;24.33;84.26
67109;BME280;54027;50.786;7.058;2023-08-12T11:38:05;101018.63;;;24.48;84.13
67109;BME280;54027;50.786;7.058;2023-08-12T11:40:30;101008.22;;;24.60;84.07
67109;BME280;54027;50.786;7.058;2023-08-12T11:42:56;101010.69;;;24.77;84.47
67109;BME280;54027;50.786;7.058;2023-08-12T11:45:23;101002.25;;;24.98;81.06
67109;BME280;54027;50.786;7.058;2023-08-12T11:47:49;101003.19;;;25.24;79.81
67109;BME280;54027;50.786;7.058;2023-08-12T11:50:19;100985.66;;;25.62;77.60
67109;BME280;54027;50.786;7.058;2023-08-12T11:52:45;100980.31;;;26.02;76.51
67109;BME280;54027;50.786;7.058;2023-08-12T11:55:11;100973.97;;;26.17;74.12
67109;BME280;54027;50.786;7.058;2023-08-12T11:57:39;100964.72;;;26.10;72.43
67109;BME280;54027;50.786;7.058;2023-08-12T12:00:06;100982.66;;;25.94;73.94
67109;BME280;54027;50.786;7.058;2023-08-12T12:02:54;100971.00;;;25.96;73.23
67109;BME280;54027;50.786;7.058;2023-08-12T12:05:26;100965.91;;;26.06;72.40
67109;BME280;54027;50.786;7.058;2023-08-12T12:07:52;100959.03;;;26.29;70.36
67109;BME280;54027;50.786;7.058;2023-08-12T12:10:32;100943.31;;;26.38;68.67
67109;BME280;54027;50.786;7.058;2023-08-12T12:12:58;100947.97;;;26.47;68.62
67109;BME280;54027;50.786;7.058;2023-08-12T12:15:24;100944.88;;;26.53;68.10
67109;BME280;54027;50.786;7.058;2023-08-12T12:17:50;100945.13;;;26.74;67.69
67109;BME280;54027;50.786;7.058;2023-08-12T12:20:16;100955.44;;;26.66;67.76
67109;BME280;54027;50.786;7.058;2023-08-12T12:22:43;100969.69;;;26.52;69.16
67109;BME280;54027;50.786;7.058;2023-08-12T12:25:13;100962.19;;;26.34;69.04
67109;BME280;54027;50.786;7.058;2023-08-12T12:27:40;100964.97;;;26.32;68.47
67109;BME280;54027;50.786;7.058;2023-08-12T12:30:09;100963.69;;;26.38;67.80
67109;BME280;54027;50.786;7.058;2023-08-12T12:32:36;100973.94;;;26.42;68.63
67109;BME280;54027;50.786;7.058;2023-08-12T12:35:02;100985.53;;;26.29;69.08
67109;BME280;54027;50.786;7.058;2023-08-12T12:37:28;100988.09;;;26.17;68.80
67109;BME280;54027;50.786;7.058;2023-08-12T12:39:54;100988.91;;;26.05;69.13
67109;BME280;54027;50.786;7.058;2023-08-12T12:42:19;100984.25;;;26.09;68.94
67109;BME280;54027;50.786;7.058;2023-08-12T12:44:44;100982.13;;;26.14;69.02
67109;BME280;54027;50.786;7.058;2023-08-12T12:47:10;100987.97;;;26.19;68.73
67109;BME280;54027;50.786;7.058;2023-08-12T12:49:37;100994.06;;;26.07;68.93